Time;durP1;ratioP1;P1;durP2;ratioP2;P2;SDS_P1;SDS_P2;PMS_P1;PMS_P2;Temp;Humidity;BMP_temperature;BMP_pressure;BME280_temperature;BME280_humidity;BME280_pressure;Samples;Min_cycle;Max_cycle;Signal;HPM_P1;HPM_P2
2023/09/18 00:02:08;;;;;;;12.77;11.48;;;;;;;20.77;97.96;100341.00;3592767;39;20070;-67
2023/09/18 00:04:33;;;;;;;15.05;11.45;;;;;;;20.75;98.29;100340.28;3594034;39;20051;-68
2023/09/18 00:06:59;;;;;;;12.48;10.15;;;;;;;20.75;98.34;100334.84;3594201;39;20055;-68
2023/09/18 00:09:25;;;;;;;13.50;11.18;;;;;;;20.72;97.88;100337.06;3592865;39;20047;-65
2023/09/18 00:11:52;;;;;;;11.55;10.40;;;;;;;20.69;98.19;100335.53;3595602;39;20059;-65
2023/09/18 00:14:18;;;;;;;11.68;10.60;;;;;;;20.67;98.11;100333.97;3594651;39;20051;-66
2023/09/18 00:16:44;;;;;;;12.35;11.05;;;;;;;20.62;98.52;100321.69;3596336;39;20066;-68
2023/09/18 00:19:10;;;;;;;13.43;10.98;;;;;;;20.64;98.58;100319.63;3595136;39;20051;-68
2023/09/18 00:21:36;;;;;;;12.85;11.43;;;;;;;20.64;98.48;100314.16;3598770;39;20055;-67
2023/09/18 00:24:03;;;;;;;12.35;11.05;;;;;;;20.63;98.63;100311.63;3594748;39;20136;-67
2023/09/18 00:26:28;;;;;;;11.52;10.38;;;;;;;20.62;99.05;100299.84;3586593;39;20365;-67
2023/09/18 00:28:54;;;;;;;10.80;9.77;;;;;;;20.60;98.74;100290.97;3594684;39;20055;-66
2023/09/18 00:31:20;;;;;;;11.98;10.63;;;;;;;20.31;98.47;100236.03;3594514;39;20070;-68
2023/09/18 00:33:45;;;;;;;10.77;9.68;;;;;;;20.63;98.35;100282.44;3593134;39;20055;-67
2023/09/18 00:36:11;;;;;;;11.93;9.45;;;;;;;20.64;97.88;100281.41;3592007;39;20078;-67
2023/09/18 00:38:36;;;;;;;10.68;9.60;;;;;;;20.65;97.74;100282.28;3594333;39;20062;-67
2023/09/18 00:41:02;;;;;;;10.75;9.15;;;;;;;20.69;97.37;100274.59;3593798;39;20075;-68
2023/09/18 00:43:28;;;;;;;10.23;9.18;;;;;;;20.68;97.16;100268.28;3595439;39;20326;-68
2023/09/18 00:45:54;;;;;;;11.77;8.80;;;;;;;20.72;97.20;100266.03;3593252;39;20059;-66
2023/09/18 00:48:19;;;;;;;12.60;9.45;;;;;;;20.71;96.46;100258.84;3596177;39;20066;-67
2023/09/18 00:50:48;;;;;;;11.00;9.02;;;;;;;20.72;97.31;100260.56;3594932;39;20056;-68
2023/09/18 00:53:21;;;;;;;10.40;8.57;;;;;;;20.73;97.14;100267.72;3593217;39;20067;-68
2023/09/18 00:55:50;;;;;;;12.50;8.32;;;;;;;20.74;96.78;100258.50;3591951;39;20054;-68
2023/09/18 00:58:16;;;;;;;9.57;8.52;;;;;;;20.74;96.58;100245.72;3592906;39;20062;-67
2023/09/18 01:00:45;;;;;;;8.95;7.85;;;;;;;20.73;96.38;100246.72;3594262;39;20058;-68
2023/09/18 01:03:11;;;;;;;11.05;8.13;;;;;;;20.75;96.43;100246.56;3594656;39;20071;-67
2023/09/18 01:05:37;;;;;;;9.45;8.27;;;;;;;20.76;96.11;100235.44;3598339;39;20090;-68
2023/09/18 01:08:04;;;;;;;8.30;7.40;;;;;;;20.78;95.71;100227.09;3584146;39;20059;-67
2023/09/18 01:10:48;;;;;;;9.48;8.00;;;;;;;20.80;95.15;100219.56;3593602;39;20405;-66
2023/09/18 01:13:29;;;;;;;10.35;7.45;;;;;;;20.63;94.93;100186.84;3592981;39;20103;-68
2023/09/18 01:16:08;;;;;;;10.77;7.63;;;;;;;20.73;94.61;100188.53;3593359;39;20059;-67
2023/09/18 01:18:33;;;;;;;9.65;7.82;;;;;;;20.87;94.31;100204.19;3593326;39;20297;-66
2023/09/18 01:20:59;;;;;;;8.38;7.53;;;;;;;20.90;93.97;100192.03;3592318;39;20047;-67
2023/09/18 01:23:24;;;;;;;8.13;7.32;;;;;;;20.91;93.78;100194.59;3593576;39;20059;-65
2023/09/18 01:25:50;;;;;;;10.50;7.43;;;;;;;20.91;93.78;100205.53;3594329;39;20052;-67
2023/09/18 01:28:16;;;;;;;9.40;6.97;;;;;;;20.92;93.79;100201.75;3593675;39;20318;-67
2023/09/18 01:30:42;;;;;;;9.98;7.68;;;;;;;20.93;93.98;100198.03;3592996;39;20048;-67
2023/09/18 01:33:11;;;;;;;7.88;7.07;;;;;;;20.86;93.80;100197.00;3592502;39;20405;-67
2023/09/18 01:35:37;;;;;;;7.45;6.72;;;;;;;20.94;93.49;100205.19;3583531;40;20087;-67
2023/09/18 01:38:03;;;;;;;11.45;6.68;;;;;;;20.92;93.50;100207.22;3593171;39;20063;-68
2023/09/18 01:40:31;;;;;;;7.10;6.35;;;;;;;20.96;92.96;100214.03;3594516;39;20364;-67
2023/09/18 01:42:57;;;;;;;9.40;6.30;;;;;;;20.98;92.67;100217.44;3593355;39;20051;-67
2023/09/18 01:45:22;;;;;;;6.93;6.18;;;;;;;21.01;92.26;100210.78;3593707;39;20104;-67
2023/09/18 01:47:48;;;;;;;8.55;6.20;;;;;;;21.03;92.15;100209.56;3593265;39;20310;-67
2023/09/18 01:50:14;;;;;;;8.15;5.85;;;;;;;21.05;91.63;100215.69;3591549;39;20508;-67
2023/09/18 01:52:40;;;;;;;7.50;5.75;;;;;;;21.09;91.80;100208.88;3593876;39;20059;-67
2023/09/18 01:55:07;;;;;;;6.75;5.88;;;;;;;21.10;91.33;100205.09;3592075;39;20070;-69
2023/09/18 01:57:33;;;;;;;6.75;5.85;;;;;;;21.13;90.94;100200.31;3590995;39;20125;-67
2023/09/18 01:59:59;;;;;;;6.35;5.47;;;;;;;21.14;91.02;100202.00;3592992;39;20059;-66
2023/09/18 02:02:24;;;;;;;9.38;5.97;;;;;;;21.16;90.64;100194.50;3596365;39;20124;-66
2023/09/18 02:04:50;;;;;;;8.65;6.00;;;;;;;21.17;90.63;100188.81;3591749;39;20078;-66
2023/09/18 02:07:15;;;;;;;9.05;6.07;;;;;;;21.18;90.62;100195.16;3594353;39;20067;-68
2023/09/18 02:09:41;;;;;;;7.97;5.70;;;;;;;21.18;90.94;100192.41;3594438;39;20382;-67
2023/09/18 02:12:07;;;;;;;7.63;5.72;;;;;;;21.19;90.93;100196.88;3592271;39;20052;-66
2023/09/18 02:14:33;;;;;;;11.52;6.38;;;;;;;21.17;91.60;100196.19;3593075;39;20339;-67
2023/09/18 02:16:59;;;;;;;6.90;5.57;;;;;;;21.17;91.58;100187.97;3591635;39;20117;-66
2023/09/18 02:19:26;;;;;;;8.07;5.57;;;;;;;21.17;91.70;100185.25;3593092;39;20056;-67
2023/09/18 02:21:52;;;;;;;7.00;5.55;;;;;;;21.17;91.58;100182.50;3592218;39;20071;-67
2023/09/18 02:24:17;;;;;;;6.28;5.68;;;;;;;21.17;91.29;100172.44;3594169;39;20073;-66
2023/09/18 02:26:45;;;;;;;9.23;5.72;;;;;;;21.18;91.90;100173.28;3593257;39;20064;-66
2023/09/18 02:29:11;;;;;;;8.23;5.82;;;;;;;21.00;91.71;100138.88;3592109;39;20043;-67
2023/09/18 02:31:38;;;;;;;6.15;5.30;;;;;;;21.15;91.28;100151.75;3594117;39;20109;-67
2023/09/18 02:34:04;;;;;;;5.88;5.28;;;;;;;21.12;91.12;100138.47;3596459;39;20051;-68
2023/09/18 02:36:30;;;;;;;8.45;5.70;;;;;;;21.15;91.23;100138.09;3593842;39;20058;-68
2023/09/18 02:38:55;;;;;;;10.10;5.78;;;;;;;21.12;91.46;100146.66;3594325;39;20051;-68
2023/09/18 02:41:21;;;;;;;9.75;5.65;;;;;;;21.08;92.19;100136.09;3591465;39;20064;-67
2023/09/18 02:43:46;;;;;;;8.45;5.22;;;;;;;21.07;92.23;100137.13;3591384;39;20060;-68
2023/09/18 02:46:12;;;;;;;7.40;5.10;;;;;;;21.05;91.78;100122.78;3595531;39;20102;-68
2023/09/18 02:48:38;;;;;;;8.20;5.22;;;;;;;21.08;91.27;100116.09;3591759;39;20043;-66
2023/09/18 02:51:05;;;;;;;10.63;5.40;;;;;;;21.03;90.36;100103.00;3592359;39;20056;-68
2023/09/18 02:53:31;;;;;;;11.15;5.20;;;;;;;20.95;89.82;100088.53;3590812;39;20320;-66
2023/09/18 02:55:59;;;;;;;9.13;4.97;;;;;;;21.19;89.47;100117.59;3591401;39;20068;-66
2023/09/18 02:58:26;;;;;;;10.00;4.93;;;;;;;21.13;88.74;100099.19;3593619;39;20064;-68
2023/09/18 03:00:55;;;;;;;9.02;5.03;;;;;;;21.29;88.37;100099.06;3584890;39;20062;-66
2023/09/18 03:03:21;;;;;;;11.45;4.80;;;;;;;21.36;87.52;100100.06;3595325;39;20056;-68
2023/09/18 03:05:47;;;;;;;13.50;5.25;;;;;;;21.40;87.31;100090.44;3591627;39;20072;-67
2023/09/18 03:08:16;;;;;;;7.97;4.40;;;;;;;21.42;87.06;100077.47;3590927;39;20067;-68
2023/09/18 03:10:43;;;;;;;12.73;4.80;;;;;;;21.47;87.36;100079.63;3592256;39;20379;-67
2023/09/18 03:13:11;;;;;;;10.32;4.93;;;;;;;21.49;86.97;100078.41;3592007;39;20163;-67
2023/09/18 03:15:37;;;;;;;10.32;5.45;;;;;;;21.52;86.92;100078.03;3591664;39;20063;-65
2023/09/18 03:18:05;;;;;;;8.70;4.55;;;;;;;21.53;86.56;100068.81;3592507;39;20371;-66
2023/09/18 03:20:31;;;;;;;10.70;5.13;;;;;;;21.54;86.36;100075.97;3593280;39;20079;-67
2023/09/18 03:23:00;;;;;;;12.25;5.20;;;;;;;21.55;86.98;100093.25;3594548;39;20056;-67
2023/09/18 03:25:26;;;;;;;10.25;5.20;;;;;;;21.55;86.79;100088.63;3591644;39;20060;-68
2023/09/18 03:27:56;;;;;;;8.30;4.97;;;;;;;21.53;87.21;100085.25;3593701;39;20144;-67
2023/09/18 03:30:26;;;;;;;10.63;5.40;;;;;;;21.53;87.63;100096.19;3600254;39;20054;-67
2023/09/18 03:32:53;;;;;;;12.02;5.25;;;;;;;21.49;87.84;100108.50;3591732;39;20060;-66
2023/09/18 03:35:19;;;;;;;12.35;5.65;;;;;;;21.47;87.86;100105.13;3599275;39;20095;-68
2023/09/18 03:37:49;;;;;;;9.77;5.20;;;;;;;21.46;87.97;100111.59;3600031;39;20421;-67
2023/09/18 03:40:17;;;;;;;11.50;5.18;;;;;;;21.43;88.66;100109.22;3599022;39;20055;-66
2023/09/18 03:42:43;;;;;;;8.05;5.30;;;;;;;21.42;88.98;100090.28;3596080;39;20056;-67
2023/09/18 03:45:09;;;;;;;8.52;5.30;;;;;;;21.40;89.56;100106.84;3595695;39;20070;-66
2023/09/18 03:47:41;;;;;;;8.50;5.07;;;;;;;21.39;89.87;100116.09;3597226;39;20122;-67
2023/09/18 03:50:09;;;;;;;9.30;5.60;;;;;;;21.38;90.21;100108.09;3596623;39;20063;-66
2023/09/18 03:52:35;;;;;;;8.48;5.50;;;;;;;21.18;90.58;100069.41;3588185;39;20055;-67
2023/09/18 03:55:01;;;;;;;7.57;5.25;;;;;;;21.36;90.80;100105.53;3593809;39;20067;-66
2023/09/18 03:57:27;;;;;;;9.13;5.90;;;;;;;21.17;90.89;100073.19;3592225;39;20374;-67
2023/09/18 03:59:53;;;;;;;8.65;5.72;;;;;;;21.29;91.22;100093.59;3593041;39;20272;-67
2023/09/18 04:02:19;;;;;;;9.48;5.55;;;;;;;20.67;91.88;100014.44;3595486;39;20051;-67
2023/09/18 04:04:44;;;;;;;10.52;6.35;;;;;;;21.23;92.54;100108.84;3593276;39;20051;-67
2023/09/18 04:07:11;;;;;;;9.57;5.85;;;;;;;21.20;93.04;100122.88;3594551;39;20067;-68
2023/09/18 04:09:37;;;;;;;10.45;6.00;;;;;;;21.19;93.51;100125.78;3594271;39;20058;-67
2023/09/18 04:12:07;;;;;;;8.77;5.95;;;;;;;21.16;94.20;100117.97;3593034;39;20052;-68
2023/09/18 04:14:33;;;;;;;10.73;6.13;;;;;;;21.02;94.57;100093.06;3595298;39;20048;-67
2023/09/18 04:17:00;;;;;;;9.65;6.18;;;;;;;20.99;95.35;100093.44;3592715;39;20052;-68
2023/09/18 04:19:26;;;;;;;11.65;6.40;;;;;;;21.06;96.31;100099.91;3592634;39;20052;-66
2023/09/18 04:21:52;;;;;;;8.07;6.40;;;;;;;21.04;96.47;100093.75;3594890;39;20116;-67
2023/09/18 04:24:18;;;;;;;9.75;6.18;;;;;;;21.02;96.88;100090.34;3595013;39;20055;-67
2023/09/18 04:26:44;;;;;;;9.57;6.38;;;;;;;20.99;97.57;100076.19;3595657;39;20120;-67
2023/09/18 04:29:09;;;;;;;13.30;6.63;;;;;;;20.95;97.83;100081.19;3591516;39;20071;-67
2023/09/18 04:31:35;;;;;;;12.25;6.60;;;;;;;20.80;98.11;100069.31;3591226;39;20067;-68
2023/09/18 04:34:02;;;;;;;11.35;6.85;;;;;;;20.97;98.23;100078.28;3596334;39;20064;-67
2023/09/18 04:36:28;;;;;;;7.63;6.80;;;;;;;20.94;98.80;100074.03;3592857;39;20059;-66
2023/09/18 04:38:54;;;;;;;10.10;7.32;;;;;;;20.93;99.20;100072.34;3594680;39;20059;-68
2023/09/18 04:41:19;;;;;;;11.18;7.65;;;;;;;20.91;99.03;100047.06;3583614;39;20387;-67
2023/09/18 04:43:45;;;;;;;12.07;6.97;;;;;;;20.89;99.45;100038.19;3595721;39;20051;-67
2023/09/18 04:46:10;;;;;;;9.02;6.93;;;;;;;20.90;99.30;100028.09;3594123;39;20059;-66
2023/09/18 04:48:37;;;;;;;8.63;7.32;;;;;;;20.89;99.50;100027.25;3593312;39;21454;-67
2023/09/18 04:51:03;;;;;;;11.68;7.43;;;;;;;20.82;99.63;100015.34;3591894;39;20516;-68
2023/09/18 04:53:31;;;;;;;14.07;9.23;;;;;;;20.86;99.37;100027.63;3598293;39;20054;-68
2023/09/18 04:55:57;;;;;;;11.88;7.70;;;;;;;20.84;99.91;100024.25;3596206;39;20106;-66
2023/09/18 04:58:23;;;;;;;8.93;7.30;;;;;;;20.65;99.84;99992.78;3595577;39;20443;-66
2023/09/18 05:01:00;;;;;;;10.75;7.35;;;;;;;20.81;99.99;100021.88;3596905;39;20078;-66
2023/09/18 05:03:28;;;;;;;14.77;7.90;;;;;;;20.81;100.00;100019.13;3591746;39;20047;-65
2023/09/18 05:05:54;;;;;;;10.05;7.10;;;;;;;20.80;99.54;100022.88;3593027;39;20129;-66
2023/09/18 05:08:20;;;;;;;9.48;6.57;;;;;;;20.79;100.00;100019.28;3594568;39;20067;-66
2023/09/18 05:10:46;;;;;;;10.02;6.88;;;;;;;20.76;99.81;100030.59;3594403;39;20074;-66
2023/09/18 05:13:12;;;;;;;9.45;5.80;;;;;;;20.74;99.06;100026.31;3593489;39;20406;-67
2023/09/18 05:15:38;;;;;;;8.88;5.30;;;;;;;20.73;98.25;100021.91;3594480;39;20043;-67
2023/09/18 05:18:04;;;;;;;6.65;4.57;;;;;;;20.72;97.06;100025.69;3592295;39;20048;-66
2023/09/18 05:20:31;;;;;;;5.50;4.18;;;;;;;20.72;96.33;100039.34;3592224;39;20052;-65
2023/09/18 05:22:58;;;;;;;5.55;3.67;;;;;;;20.71;95.15;100040.34;3590441;39;20048;-68
2023/09/18 05:25:27;;;;;;;4.40;3.30;;;;;;;20.68;94.52;100035.25;3591170;39;20055;-66
2023/09/18 05:27:57;;;;;;;3.50;3.15;;;;;;;20.71;93.27;100045.81;3591904;39;20051;-67
2023/09/18 05:30:33;;;;;;;4.95;2.90;;;;;;;20.71;92.54;100052.16;3589697;39;20352;-66
2023/09/18 05:33:04;;;;;;;5.32;3.20;;;;;;;20.73;91.76;100027.38;3590708;39;20048;-66
2023/09/18 05:35:32;;;;;;;4.28;2.67;;;;;;;20.59;91.41;100009.88;3585854;39;20052;-66
2023/09/18 05:37:58;;;;;;;5.82;2.90;;;;;;;20.71;90.82;100033.03;3590233;39;20055;-67
2023/09/18 05:40:26;;;;;;;5.82;2.60;;;;;;;20.70;90.91;100039.50;3592121;39;20091;-67
2023/09/18 05:42:54;;;;;;;3.60;2.40;;;;;;;20.69;90.41;100031.50;3591422;39;20087;-66
2023/09/18 05:45:20;;;;;;;3.10;2.10;;;;;;;20.67;90.06;100034.41;3594401;39;20370;-65
2023/09/18 05:47:46;;;;;;;3.35;2.30;;;;;;;20.64;89.79;100029.28;3591925;39;20070;-65
2023/09/18 05:50:16;;;;;;;3.80;2.00;;;;;;;20.63;89.95;100044.84;3591171;39;20386;-67
2023/09/18 05:52:47;;;;;;;2.22;2.00;;;;;;;20.61;89.60;100055.09;3590968;39;20120;-66
2023/09/18 05:55:14;;;;;;;2.50;1.95;;;;;;;20.51;89.42;100034.47;3591674;39;20095;-67
2023/09/18 05:57:41;;;;;;;2.50;2.22;;;;;;;20.57;89.52;100061.94;3591868;39;20337;-66
2023/09/18 06:00:07;;;;;;;2.53;1.63;;;;;;;20.59;89.45;100065.34;3593181;39;20059;-66
2023/09/18 06:02:33;;;;;;;5.50;1.90;;;;;;;20.57;88.70;100064.66;3593310;39;20422;-68
2023/09/18 06:05:01;;;;;;;2.70;1.75;;;;;;;20.58;88.80;100071.84;3595325;39;20087;-66
2023/09/18 06:07:27;;;;;;;2.50;1.83;;;;;;;20.56;88.90;100075.78;3591397;39;20059;-68
2023/09/18 06:09:53;;;;;;;5.20;1.70;;;;;;;20.55;88.72;100069.47;3590666;39;20052;-68
2023/09/18 06:12:19;;;;;;;2.25;1.58;;;;;;;20.55;88.71;100080.41;3582807;39;20056;-67
2023/09/18 06:14:46;;;;;;;3.78;1.77;;;;;;;20.53;88.59;100082.44;3591266;39;20059;-68
2023/09/18 06:17:12;;;;;;;3.92;1.60;;;;;;;20.53;88.78;100068.78;3589314;39;20591;-68
2023/09/18 06:19:39;;;;;;;2.67;1.60;;;;;;;20.52;88.46;100080.75;3592461;39;20125;-67
2023/09/18 06:22:04;;;;;;;5.85;1.77;;;;;;;20.50;88.51;100082.75;3592199;39;20117;-67
2023/09/18 06:24:30;;;;;;;3.58;1.60;;;;;;;20.46;88.90;100070.50;3591299;39;20063;-67
2023/09/18 06:26:56;;;;;;;3.78;1.70;;;;;;;20.49;89.02;100094.72;3592175;39;20052;-67
2023/09/18 06:29:21;;;;;;;2.53;1.70;;;;;;;20.47;88.99;100094.03;3591314;39;20058;-68
2023/09/18 06:31:47;;;;;;;2.35;1.50;;;;;;;20.47;89.13;100087.72;3595499;39;20378;-66
2023/09/18 06:34:13;;;;;;;3.35;1.65;;;;;;;20.46;88.99;100086.03;3591827;39;20062;-66
2023/09/18 06:36:38;;;;;;;3.08;1.70;;;;;;;20.45;88.73;100090.63;3595259;39;20058;-64
2023/09/18 06:39:04;;;;;;;3.53;1.98;;;;;;;20.45;88.95;100093.34;3590443;39;20084;-65
2023/09/18 06:41:30;;;;;;;3.22;1.70;;;;;;;20.45;89.22;100101.53;3593229;39;20091;-66
2023/09/18 06:43:56;;;;;;;6.18;1.90;;;;;;;20.46;89.39;100102.41;3592239;39;20048;-66
2023/09/18 06:46:22;;;;;;;3.28;1.75;;;;;;;20.46;89.06;100097.81;3592528;39;20051;-67
2023/09/18 06:48:50;;;;;;;2.00;1.80;;;;;;;20.48;88.88;100095.72;3596299;39;20062;-66
2023/09/18 06:51:16;;;;;;;3.53;1.48;;;;;;;20.51;88.43;100110.91;3594617;39;20058;-66
2023/09/18 06:53:43;;;;;;;2.53;1.70;;;;;;;20.47;88.23;100109.56;3594908;39;20067;-65
2023/09/18 06:56:09;;;;;;;2.85;1.67;;;;;;;20.53;88.44;100119.81;3592978;39;20265;-66
2023/09/18 06:58:35;;;;;;;2.40;1.90;;;;;;;20.56;88.49;100130.38;3592088;39;20055;-66
2023/09/18 07:01:01;;;;;;;3.53;1.70;;;;;;;20.56;87.96;100123.03;3592423;39;20040;-66
2023/09/18 07:03:26;;;;;;;3.63;1.70;;;;;;;20.42;88.23;100107.34;3591925;39;20325;-65
2023/09/18 07:05:52;;;;;;;2.33;1.58;;;;;;;20.58;87.94;100122.84;3592735;39;20058;-67
2023/09/18 07:08:22;;;;;;;2.47;1.65;;;;;;;20.62;88.09;100130.53;3591248;39;20064;-66
2023/09/18 07:10:50;;;;;;;6.03;4.93;;;;;;;20.60;87.91;100127.13;3592651;39;20060;-67
2023/09/18 07:13:16;;;;;;;3.20;2.13;;;;;;;20.62;88.04;100130.53;3592175;39;20079;-64
2023/09/18 07:15:41;;;;;;;2.25;1.95;;;;;;;20.64;87.87;100133.91;3593760;39;20291;-65
2023/09/18 07:18:07;;;;;;;3.88;1.70;;;;;;;20.68;87.67;100130.84;3593360;39;20055;-66
2023/09/18 07:20:33;;;;;;;3.88;1.92;;;;;;;20.68;87.32;100145.38;3592210;39;20050;-67
2023/09/18 07:22:59;;;;;;;3.83;1.50;;;;;;;20.68;87.18;100133.56;3593006;39;20052;-64
2023/09/18 07:25:24;;;;;;;5.22;1.50;;;;;;;20.69;87.21;100135.28;3592504;39;20059;-65
2023/09/18 07:27:50;;;;;;;1.50;1.40;;;;;;;20.68;87.13;100139.03;3594510;39;20051;-65
2023/09/18 07:30:16;;;;;;;1.85;1.40;;;;;;;20.69;86.32;100147.06;3593351;39;20621;-64
2023/09/18 07:32:43;;;;;;;3.20;1.80;;;;;;;20.69;86.58;100152.53;3596820;39;20040;-66
2023/09/18 07:35:10;;;;;;;2.30;1.58;;;;;;;20.70;85.45;100146.03;3594017;39;20130;-67
2023/09/18 07:37:36;;;;;;;1.95;1.60;;;;;;;20.71;86.09;100144.13;3596504;39;20072;-67
2023/09/18 07:40:07;;;;;;;2.38;1.55;;;;;;;20.73;86.00;100153.00;3596125;39;20365;-67
2023/09/18 07:42:33;;;;;;;3.55;1.55;;;;;;;20.75;85.53;100150.97;3594914;39;20116;-66
2023/09/18 07:44:59;;;;;;;2.22;1.50;;;;;;;20.76;85.47;100147.19;3596301;39;20348;-67
2023/09/18 07:47:25;;;;;;;3.33;1.73;;;;;;;20.77;84.77;100155.22;3594678;39;20084;-67
2023/09/18 07:49:51;;;;;;;2.10;1.50;;;;;;;20.79;84.97;100144.97;3596759;39;20326;-67
2023/09/18 07:52:20;;;;;;;2.28;1.45;;;;;;;20.84;84.79;100155.38;3595213;39;20056;-64
2023/09/18 07:54:46;;;;;;;2.72;1.58;;;;;;;20.85;84.34;100157.91;3595859;39;20055;-66
2023/09/18 07:57:11;;;;;;;3.58;1.65;;;;;;;20.84;85.01;100141.72;3597119;39;20781;-66
2023/09/18 07:59:38;;;;;;;2.45;1.45;;;;;;;20.83;84.11;100143.56;3599523;39;20075;-65
2023/09/18 08:02:05;;;;;;;5.40;1.50;;;;;;;20.88;84.27;100145.78;3597667;39;20047;-64
2023/09/18 08:04:34;;;;;;;3.80;1.67;;;;;;;20.89;83.41;100136.53;3599149;39;20055;-65
2023/09/18 08:07:00;;;;;;;3.72;2.70;;;;;;;20.87;83.63;100149.56;3594816;39;20063;-64
2023/09/18 08:09:26;;;;;;;3.25;1.80;;;;;;;20.86;83.25;100150.56;3596742;39;20055;-66
2023/09/18 08:11:55;;;;;;;2.08;1.50;;;;;;;20.88;83.59;100153.13;3598485;39;20055;-64
2023/09/18 08:14:22;;;;;;;2.97;1.63;;;;;;;20.88;82.77;100162.16;3595672;39;20078;-65
2023/09/18 08:16:47;;;;;;;4.10;1.45;;;;;;;20.89;82.37;100152.94;3597118;39;20048;-65
2023/09/18 08:19:19;;;;;;;2.17;1.60;;;;;;;20.88;82.25;100153.97;3592966;39;20103;-66
2023/09/18 08:21:46;;;;;;;4.78;1.80;;;;;;;20.91;82.48;100156.34;3593348;39;20051;-65
2023/09/18 08:24:11;;;;;;;3.75;1.38;;;;;;;20.96;81.31;100153.06;3593784;39;20121;-64
2023/09/18 08:26:37;;;;;;;1.55;1.33;;;;;;;21.10;81.20;100160.53;3591633;39;20377;-66
2023/09/18 08:29:03;;;;;;;4.72;1.83;;;;;;;21.18;81.68;100165.06;3595255;39;20409;-65
2023/09/18 08:31:31;;;;;;;2.65;1.52;;;;;;;21.28;80.71;100168.41;3586657;39;20060;-65
2023/09/18 08:33:57;;;;;;;1.83;1.40;;;;;;;21.43;78.56;100176.75;3592587;39;20382;-65
2023/09/18 08:36:23;;;;;;;2.20;1.50;;;;;;;21.41;77.83;100196.09;3593833;39;20480;-66
2023/09/18 08:38:49;;;;;;;1.90;1.55;;;;;;;21.38;78.88;100188.25;3594785;39;20102;-65
2023/09/18 08:41:20;;;;;;;2.47;1.70;;;;;;;21.49;78.73;100198.75;3593505;39;20159;-65
2023/09/18 08:43:49;;;;;;;3.05;1.77;;;;;;;21.59;78.53;100203.97;3594755;39;20121;-67
2023/09/18 08:46:15;;;;;;;5.47;1.95;;;;;;;21.65;78.32;100197.78;3592741;39;20060;-66
2023/09/18 08:48:42;;;;;;;3.53;1.80;;;;;;;21.67;77.25;100194.88;3593538;39;20067;-64
2023/09/18 08:51:11;;;;;;;3.38;1.67;;;;;;;21.76;77.09;100189.16;3593036;39;20052;-66
2023/09/18 08:53:37;;;;;;;2.67;1.45;;;;;;;21.89;76.40;100210.44;3595802;39;20132;-66
2023/09/18 08:56:04;;;;;;;2.72;1.63;;;;;;;21.87;76.06;100195.22;3593550;39;20048;-65
2023/09/18 08:58:39;;;;;;;4.07;1.70;;;;;;;22.05;76.17;100192.16;3592858;39;20398;-65
2023/09/18 09:01:09;;;;;;;2.17;1.60;;;;;;;22.19;74.26;100205.91;3595717;39;20391;-64
2023/09/18 09:03:38;;;;;;;2.50;1.50;;;;;;;22.36;73.93;100195.66;3592794;39;20052;-68
2023/09/18 09:06:06;;;;;;;1.90;1.17;;;;;;;22.54;73.83;100191.69;3593131;39;20062;-68
2023/09/18 09:08:32;;;;;;;4.10;1.73;;;;;;;22.69;72.66;100187.91;3592698;39;20056;-68
2023/09/18 09:10:58;;;;;;;3.80;1.60;;;;;;;23.02;73.12;100195.75;3582384;39;20063;-67
2023/09/18 09:13:27;;;;;;;2.95;1.33;;;;;;;23.13;70.95;100198.00;3592373;39;20099;-68
2023/09/18 09:15:59;;;;;;;5.00;2.17;;;;;;;23.19;69.55;100190.91;3594216;39;20400;-68
2023/09/18 09:18:31;;;;;;;4.65;1.88;;;;;;;23.26;69.26;100199.22;3594502;39;20051;-67
2023/09/18 09:20:58;;;;;;;5.65;1.90;;;;;;;23.26;69.63;100215.69;3593967;39;20086;-67
2023/09/18 09:23:30;;;;;;;4.68;2.08;;;;;;;23.18;69.15;100219.38;3595387;39;20295;-67
2023/09/18 09:26:17;;;;;;;4.85;1.85;;;;;;;23.03;69.27;100218.56;3595893;39;20044;-67
2023/09/18 09:28:45;;;;;;;2.83;2.00;;;;;;;23.05;71.17;100230.16;3595896;39;20081;-67
2023/09/18 09:31:11;;;;;;;6.15;2.22;;;;;;;23.05;70.60;100222.78;3592030;39;20048;-67
2023/09/18 09:33:40;;;;;;;5.55;2.53;;;;;;;23.03;71.17;100221.31;3593239;39;20064;-68
2023/09/18 09:36:07;;;;;;;12.50;8.02;;;;;;;23.06;71.01;100220.91;3597926;39;20043;-67
2023/09/18 09:38:34;;;;;;;3.80;2.08;;;;;;;23.15;68.47;100225.22;3591028;39;20544;-69
2023/09/18 09:41:01;;;;;;;2.65;2.05;;;;;;;23.15;69.50;100233.44;3591171;39;20124;-67
2023/09/18 09:43:32;;;;;;;3.67;1.75;;;;;;;23.06;69.20;100230.00;3591950;39;20396;-67
2023/09/18 09:46:00;;;;;;;4.18;1.90;;;;;;;23.05;68.77;100222.78;3596252;39;20166;-67
2023/09/18 09:48:26;;;;;;;5.18;2.15;;;;;;;22.99;69.82;100201.63;3590850;39;20275;-67
2023/09/18 09:50:57;;;;;;;6.63;2.10;;;;;;;23.09;69.98;100204.94;3583444;39;20059;-66
2023/09/18 09:53:44;;;;;;;5.35;1.92;;;;;;;23.13;69.47;100210.88;3594011;39;21640;-67
2023/09/18 09:56:10;;;;;;;5.78;1.92;;;;;;;23.06;69.06;100219.03;3592106;39;20055;-66
2023/09/18 09:58:36;;;;;;;3.65;2.00;;;;;;;23.02;69.42;100205.88;3590656;39;20074;-67
2023/09/18 10:01:11;;;;;;;4.95;1.80;;;;;;;23.07;69.80;100223.47;3593235;39;20322;-67
2023/09/18 10:03:39;;;;;;;4.68;1.98;;;;;;;23.17;70.99;100225.91;3592411;39;20067;-66
2023/09/18 10:06:10;;;;;;;3.92;2.10;;;;;;;23.25;68.69;100222.19;3592217;39;20051;-66
2023/09/18 10:08:38;;;;;;;3.58;2.10;;;;;;;23.42;69.45;100228.31;3582839;39;20059;-67
2023/09/18 10:11:16;;;;;;;4.20;1.90;;;;;;;23.79;67.83;100241.00;3593678;39;20078;-66
2023/09/18 10:13:53;;;;;;;4.15;1.77;;;;;;;23.84;66.66;100244.00;3592625;39;20080;-66
2023/09/18 10:16:25;;;;;;;3.35;1.90;;;;;;;23.73;67.37;100248.13;3592990;39;20060;-66
2023/09/18 10:19:33;;;;;;;5.45;2.17;;;;;;;23.60;67.73;100243.31;3592160;39;20071;-67
2023/09/18 10:22:38;;;;;;;4.43;1.92;;;;;;;23.52;67.38;100231.59;3590909;39;20133;-68
2023/09/18 10:25:31;;;;;;;3.60;2.00;;;;;;;23.50;67.22;100234.53;3593112;39;20063;-67
2023/09/18 10:28:01;;;;;;;6.03;1.95;;;;;;;23.55;67.05;100237.53;3583033;39;20052;-67
2023/09/18 10:30:32;;;;;;;3.25;1.90;;;;;;;23.55;66.98;100240.28;3594611;39;20306;-68
2023/09/18 10:33:01;;;;;;;4.65;1.98;;;;;;;23.45;67.73;100227.94;3590935;39;20103;-66
2023/09/18 10:35:27;;;;;;;4.07;1.85;;;;;;;23.71;68.06;100241.97;3593997;39;20052;-67
2023/09/18 10:37:54;;;;;;;3.45;2.33;;;;;;;23.64;65.77;100244.59;3596726;39;20063;-67
2023/09/18 10:40:22;;;;;;;3.58;1.80;;;;;;;23.51;65.69;100247.22;3592514;39;20064;-66
2023/09/18 10:42:51;;;;;;;6.10;2.35;;;;;;;23.35;67.35;100256.50;3594145;39;20047;-67
2023/09/18 10:45:17;;;;;;;5.78;2.10;;;;;;;23.29;67.96;100261.91;3594023;39;20051;-65
2023/09/18 10:47:47;;;;;;;6.45;2.35;;;;;;;23.23;66.96;100257.19;3595033;39;20125;-67
2023/09/18 10:50:27;;;;;;;4.07;2.10;;;;;;;23.14;67.27;100248.22;3594777;39;20109;-66
2023/09/18 10:52:53;;;;;;;3.67;2.10;;;;;;;23.13;68.01;100241.03;3595308;39;20074;-67
2023/09/18 10:55:21;;;;;;;5.68;2.20;;;;;;;23.16;66.85;100235.19;3592559;39;20317;-67
2023/09/18 10:57:56;;;;;;;5.35;2.30;;;;;;;23.20;66.83;100241.97;3593150;39;20056;-67
2023/09/18 11:00:27;;;;;;;3.53;2.00;;;;;;;23.22;67.87;100223.44;3592384;39;20132;-67
2023/09/18 11:03:08;;;;;;;5.53;2.42;;;;;;;23.24;64.84;100224.09;3594631;39;20054;-67
2023/09/18 11:05:35;;;;;;;7.93;4.90;;;;;;;23.46;65.06;100218.66;3593231;39;20055;-68
2023/09/18 11:08:33;;;;;;;4.40;2.10;;;;;;;23.86;64.67;100229.03;3594301;39;20096;-65
2023/09/18 11:11:11;;;;;;;6.30;2.25;;;;;;;24.38;63.08;100215.09;3590698;39;20454;-66
2023/09/18 11:13:53;;;;;;;3.88;2.20;;;;;;;24.69;61.97;100226.56;3593356;39;20479;-67
2023/09/18 11:16:38;;;;;;;3.20;2.17;;;;;;;25.09;59.84;100221.28;3592780;39;20055;-67
2023/09/18 11:19:04;;;;;;;3.38;2.08;;;;;;;25.37;57.52;100234.13;3592869;39;20044;-66
2023/09/18 11:21:32;;;;;;;4.90;2.53;;;;;;;25.61;58.24;100229.97;3593552;39;20071;-66
2023/09/18 11:24:05;;;;;;;3.92;2.08;;;;;;;26.02;57.28;100232.63;3593245;39;20058;-67
2023/09/18 11:26:34;;;;;;;2.25;2.00;;;;;;;26.34;56.42;100224.56;3592082;39;20075;-67